sensor_id;sensor_type;location;lat;lon;timestamp;pressure;altitude;pressure_sealevel;temperature;humidity
47240;BME280;32978;53.586;10.052;2023-03-16T00:00:03;101978.50;;;-0.03;100.00
47240;BME280;32978;53.586;10.052;2023-03-16T00:05:00;101982.91;;;-0.09;100.00
47240;BME280;32978;53.586;10.052;2023-03-16T00:09:56;101992.00;;;-0.16;100.00
47240;BME280;32978;53.586;10.052;2023-03-16T00:14:53;101999.28;;;-0.24;100.00
47240;BME280;32978;53.586;10.052;2023-03-16T00:19:51;102006.56;;;-0.31;100.00
47240;BME280;32978;53.586;10.052;2023-03-16T00:24:52;102015.69;;;-0.32;100.00
47240;BME280;32978;53.586;10.052;2023-03-16T00:29:50;102014.06;;;-0.39;100.00
47240;BME280;32978;53.586;10.052;2023-03-16T00:34:51;102014.88;;;-0.39;100.00
47240;BME280;32978;53.586;10.052;2023-03-16T00:39:48;102014.09;;;-0.46;100.00
47240;BME280;32978;53.586;10.052;2023-03-16T00:44:45;102015.53;;;-0.50;100.00
47240;BME280;32978;53.586;10.052;2023-03-16T00:49:42;102024.84;;;-0.53;100.00
47240;BME280;32978;53.586;10.052;2023-03-16T00:54:41;102014.56;;;-0.62;100.00
47240;BME280;32978;53.586;10.052;2023-03-16T00:59:38;102022.63;;;-0.62;100.00
47240;BME280;32978;53.586;10.052;2023-03-16T01:04:35;102018.50;;;-0.72;100.00
47240;BME280;32978;53.586;10.052;2023-03-16T01:09:32;102022.63;;;-0.76;100.00
47240;BME280;32978;53.586;10.052;2023-03-16T01:14:33;102010.47;;;-0.78;100.00
47240;BME280;32978;53.586;10.052;2023-03-16T01:19:31;102005.09;;;-0.85;100.00
47240;BME280;32978;53.586;10.052;2023-03-16T01:24:29;102010.03;;;-0.89;100.00
47240;BME280;32978;53.586;10.052;2023-03-16T01:29:26;102009.22;;;-0.89;100.00
47240;BME280;32978;53.586;10.052;2023-03-16T01:34:22;102003.25;;;-0.91;100.00
47240;BME280;32978;53.586;10.052;2023-03-16T01:39:19;102002.00;;;-0.95;100.00
47240;BME280;32978;53.586;10.052;2023-03-16T01:44:18;102000.97;;;-0.94;100.00
47240;BME280;32978;53.586;10.052;2023-03-16T01:49:23;102010.06;;;-0.95;100.00
47240;BME280;32978;53.586;10.052;2023-03-16T02:00:08;102012.34;;;-0.92;100.00
47240;BME280;32978;53.586;10.052;2023-03-16T02:05:19;102005.09;;;-0.85;100.00
47240;BME280;32978;53.586;10.052;2023-03-16T02:10:19;101998.50;;;-0.96;100.00
47240;BME280;32978;53.586;10.052;2023-03-16T02:15:17;101998.31;;;-0.94;100.00
47240;BME280;32978;53.586;10.052;2023-03-16T02:20:18;101992.31;;;-0.96;100.00
47240;BME280;32978;53.586;10.052;2023-03-16T02:25:30;101989.00;;;-0.98;100.00
47240;BME280;32978;53.586;10.052;2023-03-16T02:30:33;101978.28;;;-1.05;100.00
47240;BME280;32978;53.586;10.052;2023-03-16T02:35:31;101979.31;;;-0.99;100.00
47240;BME280;32978;53.586;10.052;2023-03-16T02:40:30;101989.41;;;-0.88;100.00
47240;BME280;32978;53.586;10.052;2023-03-16T02:45:31;101981.56;;;-0.96;100.00
47240;BME280;32978;53.586;10.052;2023-03-16T02:50:28;101973.91;;;-0.86;100.00
47240;BME280;32978;53.586;10.052;2023-03-16T02:55:25;101977.81;;;-0.82;100.00
47240;BME280;32978;53.586;10.052;2023-03-16T03:00:21;101986.50;;;-0.80;100.00
47240;BME280;32978;53.586;10.052;2023-03-16T03:05:18;101980.91;;;-0.78;100.00
47240;BME280;32978;53.586;10.052;2023-03-16T03:10:16;101976.56;;;-0.86;100.00
47240;BME280;32978;53.586;10.052;2023-03-16T03:15:12;101980.31;;;-0.87;100.00
47240;BME280;32978;53.586;10.052;2023-03-16T03:20:11;101993.56;;;-0.92;100.00
47240;BME280;32978;53.586;10.052;2023-03-16T03:25:14;101997.69;;;-0.96;100.00
47240;BME280;32978;53.586;10.052;2023-03-16T03:30:14;101990.88;;;-0.92;100.00
47240;BME280;32978;53.586;10.052;2023-03-16T03:35:13;101993.75;;;-0.87;100.00
47240;BME280;32978;53.586;10.052;2023-03-16T03:40:12;101984.03;;;-0.88;100.00
47240;BME280;32978;53.586;10.052;2023-03-16T03:45:10;101988.78;;;-0.90;100.00
47240;BME280;32978;53.586;10.052;2023-03-16T03:50:09;101993.13;;;-0.96;100.00
47240;BME280;32978;53.586;10.052;2023-03-16T03:55:07;101991.06;;;-0.87;100.00
47240;BME280;32978;53.586;10.052;2023-03-16T04:00:05;101996.84;;;-0.90;100.00
47240;BME280;32978;53.586;10.052;2023-03-16T04:05:06;101982.81;;;-0.92;100.00
47240;BME280;32978;53.586;10.052;2023-03-16T04:10:02;101986.94;;;-0.96;100.00
47240;BME280;32978;53.586;10.052;2023-03-16T04:14:59;101987.56;;;-1.01;100.00
47240;BME280;32978;53.586;10.052;2023-03-16T04:19:55;101983.66;;;-1.12;100.00
47240;BME280;32978;53.586;10.052;2023-03-16T04:24:52;101982.44;;;-1.16;100.00
47240;BME280;32978;53.586;10.052;2023-03-16T04:29:48;101979.09;;;-1.04;100.00
47240;BME280;32978;53.586;10.052;2023-03-16T04:34:45;101976.84;;;-1.08;100.00
47240;BME280;32978;53.586;10.052;2023-03-16T04:39:43;101976.84;;;-1.14;100.00
47240;BME280;32978;53.586;10.052;2023-03-16T04:44:39;101973.78;;;-1.31;100.00
47240;BME280;32978;53.586;10.052;2023-03-16T04:49:39;101990.31;;;-1.34;100.00
47240;BME280;32978;53.586;10.052;2023-03-16T04:54:36;101985.31;;;-1.24;100.00
47240;BME280;32978;53.586;10.052;2023-03-16T04:59:32;101982.44;;;-1.16;100.00
47240;BME280;32978;53.586;10.052;2023-03-16T05:04:29;101979.13;;;-1.11;100.00
47240;BME280;32978;53.586;10.052;2023-03-16T05:09:25;101970.66;;;-1.01;100.00
47240;BME280;32978;53.586;10.052;2023-03-16T05:14:22;101962.59;;;-1.15;100.00
47240;BME280;32978;53.586;10.052;2023-03-16T05:19:18;101955.78;;;-0.97;100.00
47240;BME280;32978;53.586;10.052;2023-03-16T05:24:16;101959.47;;;-0.98;100.00
47240;BME280;32978;53.586;10.052;2023-03-16T05:29:12;101962.34;;;-0.93;100.00
47240;BME280;32978;53.586;10.052;2023-03-16T05:34:09;101959.25;;;-0.90;100.00
47240;BME280;32978;53.586;10.052;2023-03-16T05:39:05;101969.53;;;-0.74;100.00
47240;BME280;32978;53.586;10.052;2023-03-16T05:44:03;101979.41;;;-0.68;100.00
47240;BME280;32978;53.586;10.052;2023-03-16T05:49:00;101981.88;;;-0.59;100.00
47240;BME280;32978;53.586;10.052;2023-03-16T05:53:56;101980.59;;;-0.50;100.00
47240;BME280;32978;53.586;10.052;2023-03-16T05:58:54;101982.63;;;-0.39;100.00
47240;BME280;32978;53.586;10.052;2023-03-16T06:03:51;101971.84;;;-0.32;100.00
47240;BME280;32978;53.586;10.052;2023-03-16T06:08:47;101964.34;;;-0.24;100.00
47240;BME280;32978;53.586;10.052;2023-03-16T06:13:44;101968.25;;;-0.19;100.00
47240;BME280;32978;53.586;10.052;2023-03-16T06:18:41;101966.34;;;-0.12;100.00
47240;BME280;32978;53.586;10.052;2023-03-16T06:23:37;101962.53;;;0.02;100.00
47240;BME280;32978;53.586;10.052;2023-03-16T06:28:34;101957.53;;;0.12;100.00
47240;BME280;32978;53.586;10.052;2023-03-16T06:33:30;101979.31;;;0.29;100.00
47240;BME280;32978;53.586;10.052;2023-03-16T06:38:27;101972.69;;;0.32;100.00
47240;BME280;32978;53.586;10.052;2023-03-16T06:43:24;101975.94;;;0.40;100.00
47240;BME280;32978;53.586;10.052;2023-03-16T06:48:20;101969.59;;;0.53;100.00
47240;BME280;32978;53.586;10.052;2023-03-16T06:53:17;101967.97;;;0.52;100.00
47240;BME280;32978;53.586;10.052;2023-03-16T06:58:13;101972.91;;;0.55;100.00
47240;BME280;32978;53.586;10.052;2023-03-16T07:03:10;101972.13;;;0.48;100.00
47240;BME280;32978;53.586;10.052;2023-03-16T07:08:06;101969.28;;;0.43;100.00
47240;BME280;32978;53.586;10.052;2023-03-16T07:13:03;101979.84;;;0.45;100.00
47240;BME280;32978;53.586;10.052;2023-03-16T07:17:59;101975.72;;;0.42;100.00
47240;BME280;32978;53.586;10.052;2023-03-16T07:22:56;101976.72;;;0.48;100.00
47240;BME280;32978;53.586;10.052;2023-03-16T07:27:53;101979.97;;;0.56;100.00
47240;BME280;32978;53.586;10.052;2023-03-16T07:32:49;101983.19;;;0.65;100.00
47240;BME280;32978;53.586;10.052;2023-03-16T07:37:46;101978.34;;;0.74;100.00
47240;BME280;32978;53.586;10.052;2023-03-16T07:42:43;101983.81;;;0.86;100.00
47240;BME280;32978;53.586;10.052;2023-03-16T07:47:40;101980.63;;;0.95;100.00
47240;BME280;32978;53.586;10.052;2023-03-16T07:52:36;101991.56;;;1.00;100.00
47240;BME280;32978;53.586;10.052;2023-03-16T07:57:33;101984.84;;;1.10;100.00
47240;BME280;32978;53.586;10.052;2023-03-16T08:02:29;101989.31;;;1.16;100.00
47240;BME280;32978;53.586;10.052;2023-03-16T08:07:26;101981.69;;;1.31;100.00
47240;BME280;32978;53.586;10.052;2023-03-16T08:12:23;101986.03;;;1.51;100.00
47240;BME280;32978;53.586;10.052;2023-03-16T08:17:19;101990.78;;;1.67;100.00
47240;BME280;32978;53.586;10.052;2023-03-16T08:22:16;101991.56;;;1.74;100.00
47240;BME280;32978;53.586;10.052;2023-03-16T08:27:13;101976.84;;;1.88;100.00
47240;BME280;32978;53.586;10.052;2023-03-16T08:32:11;101977.22;;;2.04;100.00
47240;BME280;32978;53.586;10.052;2023-03-16T08:37:07;101971.03;;;2.15;100.00
47240;BME280;32978;53.586;10.052;2023-03-16T08:42:04;101970.47;;;2.25;100.00
47240;BME280;32978;53.586;10.052;2023-03-16T08:47:02;101972.28;;;2.43;100.00
47240;BME280;32978;53.586;10.052;2023-03-16T08:52:00;101969.97;;;2.58;100.00
47240;BME280;32978;53.586;10.052;2023-03-16T08:56:56;101972.06;;;2.80;100.00
47240;BME280;32978;53.586;10.052;2023-03-16T09:01:53;101956.44;;;3.05;100.00
47240;BME280;32978;53.586;10.052;2023-03-16T09:06:49;101953.44;;;3.42;100.00
47240;BME280;32978;53.586;10.052;2023-03-16T09:12:03;101938.59;;;3.73;100.00
47240;BME280;32978;53.586;10.052;2023-03-16T09:16:59;101935.75;;;4.09;100.00
47240;BME280;32978;53.586;10.052;2023-03-16T09:21:57;101929.84;;;4.46;100.00
47240;BME280;32978;53.586;10.052;2023-03-16T09:26:54;101925.94;;;4.75;100.00
47240;BME280;32978;53.586;10.052;2023-03-16T09:31:51;101913.38;;;4.86;100.00
47240;BME280;32978;53.586;10.052;2023-03-16T09:36:47;101916.75;;;5.15;100.00
47240;BME280;32978;53.586;10.052;2023-03-16T09:41:47;101911.19;;;5.27;100.00
47240;BME280;32978;53.586;10.052;2023-03-16T09:46:46;101899.78;;;5.52;100.00
47240;BME280;32978;53.586;10.052;2023-03-16T09:51:54;101903.03;;;6.03;100.00
47240;BME280;32978;53.586;10.052;2023-03-16T09:56:55;101887.47;;;6.26;100.00
47240;BME280;32978;53.586;10.052;2023-03-16T10:07:13;101891.03;;;6.69;100.00
47240;BME280;32978;53.586;10.052;2023-03-16T10:12:15;101882.53;;;7.08;100.00
47240;BME280;32978;53.586;10.052;2023-03-16T10:22:22;101873.94;;;7.42;100.00
47240;BME280;32978;53.586;10.052;2023-03-16T10:27:30;101865.78;;;7.52;100.00
47240;BME280;32978;53.586;10.052;2023-03-16T10:32:31;101868.56;;;7.98;100.00
47240;BME280;32978;53.586;10.052;2023-03-16T10:37:29;101863.91;;;8.19;100.00
47240;BME280;32978;53.586;10.052;2023-03-16T10:42:26;101857.09;;;8.57;100.00
47240;BME280;32978;53.586;10.052;2023-03-16T10:47:28;101844.44;;;8.92;96.74
47240;BME280;32978;53.586;10.052;2023-03-16T10:52:37;101849.41;;;8.80;84.34
47240;BME280;32978;53.586;10.052;2023-03-16T10:57:39;101845.59;;;8.66;81.24
47240;BME280;32978;53.586;10.052;2023-03-16T11:02:36;101838.56;;;8.23;76.96
47240;BME280;32978;53.586;10.052;2023-03-16T11:07:34;101844.00;;;8.64;70.08
47240;BME280;32978;53.586;10.052;2023-03-16T11:12:31;101826.69;;;8.95;66.36
47240;BME280;32978;53.586;10.052;2023-03-16T11:17:37;101820.47;;;8.84;65.74
47240;BME280;32978;53.586;10.052;2023-03-16T11:22:35;101812.63;;;9.27;65.50
47240;BME280;32978;53.586;10.052;2023-03-16T11:32:47;101801.00;;;9.51;62.31
47240;BME280;32978;53.586;10.052;2023-03-16T11:38:07;101799.88;;;9.57;59.41
47240;BME280;32978;53.586;10.052;2023-03-16T11:43:46;101795.47;;;9.61;59.87
47240;BME280;32978;53.586;10.052;2023-03-16T11:53:59;101779.59;;;10.74;50.15
47240;BME280;32978;53.586;10.052;2023-03-16T12:04:25;101760.50;;;10.69;43.76
47240;BME280;32978;53.586;10.052;2023-03-16T12:14:48;101754.03;;;10.12;41.80
47240;BME280;32978;53.586;10.052;2023-03-16T12:19:54;101754.47;;;10.72;43.85
47240;BME280;32978;53.586;10.052;2023-03-16T12:24:52;101735.44;;;12.17;40.60
47240;BME280;32978;53.586;10.052;2023-03-16T12:29:52;101723.28;;;12.37;36.94
47240;BME280;32978;53.586;10.052;2023-03-16T12:34:58;101721.97;;;12.35;37.19
47240;BME280;32978;53.586;10.052;2023-03-16T12:50:23;101691.53;;;14.34;30.14
47240;BME280;32978;53.586;10.052;2023-03-16T12:55:28;101682.91;;;14.84;30.65
47240;BME280;32978;53.586;10.052;2023-03-16T13:00:39;101675.94;;;15.13;30.85
47240;BME280;32978;53.586;10.052;2023-03-16T13:05:43;101662.81;;;13.60;31.63
47240;BME280;32978;53.586;10.052;2023-03-16T13:10:41;101664.91;;;12.96;32.20
47240;BME280;32978;53.586;10.052;2023-03-16T13:15:38;101645.56;;;14.26;31.82
47240;BME280;32978;53.586;10.052;2023-03-16T13:20:56;101649.41;;;13.36;33.28
47240;BME280;32978;53.586;10.052;2023-03-16T13:26:00;101638.25;;;14.13;32.70
47240;BME280;32978;53.586;10.052;2023-03-16T13:30:59;101639.50;;;12.17;38.78
47240;BME280;32978;53.586;10.052;2023-03-16T13:35:57;101636.72;;;13.26;36.71
47240;BME280;32978;53.586;10.052;2023-03-16T13:40:57;101625.13;;;13.30;34.36
47240;BME280;32978;53.586;10.052;2023-03-16T13:45:56;101626.47;;;11.68;33.26
47240;BME280;32978;53.586;10.052;2023-03-16T13:50:55;101621.81;;;10.89;37.24
47240;BME280;32978;53.586;10.052;2023-03-16T13:55:56;101628.06;;;10.32;35.21
47240;BME280;32978;53.586;10.052;2023-03-16T14:00:55;101619.78;;;9.95;38.72
47240;BME280;32978;53.586;10.052;2023-03-16T14:05:56;101612.81;;;9.83;40.44
47240;BME280;32978;53.586;10.052;2023-03-16T14:10:54;101607.56;;;9.63;37.29
47240;BME280;32978;53.586;10.052;2023-03-16T14:16:01;101606.16;;;9.41;39.51
47240;BME280;32978;53.586;10.052;2023-03-16T14:20:58;101606.94;;;9.18;39.68
47240;BME280;32978;53.586;10.052;2023-03-16T14:25:55;101591.16;;;9.15;40.03
47240;BME280;32978;53.586;10.052;2023-03-16T14:30:53;101597.78;;;9.03;42.47
47240;BME280;32978;53.586;10.052;2023-03-16T14:35:54;101577.03;;;9.02;42.39
47240;BME280;32978;53.586;10.052;2023-03-16T14:40:53;101573.06;;;9.19;42.49
47240;BME280;32978;53.586;10.052;2023-03-16T14:45:51;101567.00;;;9.27;42.65
47240;BME280;32978;53.586;10.052;2023-03-16T14:50:55;101562.63;;;9.55;43.94
47240;BME280;32978;53.586;10.052;2023-03-16T14:55:53;101543.44;;;9.36;42.73
47240;BME280;32978;53.586;10.052;2023-03-16T15:00:51;101536.13;;;9.32;45.63
47240;BME280;32978;53.586;10.052;2023-03-16T15:05:49;101520.25;;;9.10;43.81
47240;BME280;32978;53.586;10.052;2023-03-16T15:10:47;101530.25;;;8.90;47.51
47240;BME280;32978;53.586;10.052;2023-03-16T15:15:44;101517.84;;;8.74;48.86
47240;BME280;32978;53.586;10.052;2023-03-16T15:20:44;101510.72;;;8.78;49.26
47240;BME280;32978;53.586;10.052;2023-03-16T15:25:42;101506.25;;;8.58;52.38
47240;BME280;32978;53.586;10.052;2023-03-16T15:30:40;101504.34;;;8.58;53.22
47240;BME280;32978;53.586;10.052;2023-03-16T15:35:38;101497.38;;;8.42;54.07
47240;BME280;32978;53.586;10.052;2023-03-16T15:40:36;101502.78;;;8.52;49.88
47240;BME280;32978;53.586;10.052;2023-03-16T15:45:34;101503.31;;;8.49;51.08
47240;BME280;32978;53.586;10.052;2023-03-16T15:50:31;101507.16;;;8.48;53.82
47240;BME280;32978;53.586;10.052;2023-03-16T15:55:40;101490.06;;;8.32;55.00
47240;BME280;32978;53.586;10.052;2023-03-16T16:00:39;101493.84;;;8.36;56.55
47240;BME280;32978;53.586;10.052;2023-03-16T16:05:36;101502.13;;;8.21;59.21
47240;BME280;32978;53.586;10.052;2023-03-16T16:10:33;101485.91;;;8.00;57.20
47240;BME280;32978;53.586;10.052;2023-03-16T16:15:32;101480.22;;;7.97;56.91
47240;BME280;32978;53.586;10.052;2023-03-16T16:20:31;101484.59;;;7.93;55.63
47240;BME280;32978;53.586;10.052;2023-03-16T16:25:35;101480.84;;;7.84;54.79
47240;BME280;32978;53.586;10.052;2023-03-16T16:30:32;101483.31;;;7.75;54.72
47240;BME280;32978;53.586;10.052;2023-03-16T16:35:30;101487.97;;;7.74;55.45
47240;BME280;32978;53.586;10.052;2023-03-16T16:40:39;101477.09;;;7.69;56.50
47240;BME280;32978;53.586;10.052;2023-03-16T16:45:41;101486.66;;;7.67;57.65
47240;BME280;32978;53.586;10.052;2023-03-16T16:50:37;101476.06;;;7.60;55.79
47240;BME280;32978;53.586;10.052;2023-03-16T16:55:34;101470.63;;;7.60;59.87
47240;BME280;32978;53.586;10.052;2023-03-16T17:00:31;101463.56;;;7.54;56.46
47240;BME280;32978;53.586;10.052;2023-03-16T17:05:28;101454.34;;;7.45;56.72
47240;BME280;32978;53.586;10.052;2023-03-16T17:10:26;101460.63;;;7.40;58.48
47240;BME280;32978;53.586;10.052;2023-03-16T17:15:30;101444.09;;;7.31;59.15
47240;BME280;32978;53.586;10.052;2023-03-16T17:20:28;101440.84;;;7.24;59.59
47240;BME280;32978;53.586;10.052;2023-03-16T17:25:26;101443.31;;;7.15;60.59
47240;BME280;32978;53.586;10.052;2023-03-16T17:30:27;101449.03;;;7.09;62.76
47240;BME280;32978;53.586;10.052;2023-03-16T17:35:25;101460.47;;;7.06;63.95
47240;BME280;32978;53.586;10.052;2023-03-16T17:40:22;101461.56;;;7.00;65.03
47240;BME280;32978;53.586;10.052;2023-03-16T17:45:23;101465.94;;;6.95;66.05
47240;BME280;32978;53.586;10.052;2023-03-16T17:50:25;101466.47;;;6.92;68.05
47240;BME280;32978;53.586;10.052;2023-03-16T17:55:22;101461.03;;;6.82;71.26
47240;BME280;32978;53.586;10.052;2023-03-16T18:00:31;101442.56;;;6.79;73.30
47240;BME280;32978;53.586;10.052;2023-03-16T18:05:30;101432.81;;;6.68;76.57
47240;BME280;32978;53.586;10.052;2023-03-16T18:10:28;101431.19;;;6.67;79.31
47240;BME280;32978;53.586;10.052;2023-03-16T18:15:29;101427.66;;;6.66;82.07
47240;BME280;32978;53.586;10.052;2023-03-16T18:20:32;101415.44;;;6.59;84.84
47240;BME280;32978;53.586;10.052;2023-03-16T18:25:34;101408.38;;;6.52;88.50
47240;BME280;32978;53.586;10.052;2023-03-16T18:30:43;101401.88;;;6.48;90.43
47240;BME280;32978;53.586;10.052;2023-03-16T18:35:42;101408.94;;;6.39;92.39
47240;BME280;32978;53.586;10.052;2023-03-16T18:40:39;101409.50;;;6.36;95.01
47240;BME280;32978;53.586;10.052;2023-03-16T18:45:36;101406.75;;;6.31;97.42
47240;BME280;32978;53.586;10.052;2023-03-16T18:50:33;101401.59;;;6.35;97.54
47240;BME280;32978;53.586;10.052;2023-03-16T18:55:30;101396.44;;;6.28;98.31
47240;BME280;32978;53.586;10.052;2023-03-16T19:00:27;101405.69;;;6.27;99.09
47240;BME280;32978;53.586;10.052;2023-03-16T19:05:30;101396.44;;;6.28;99.22
47240;BME280;32978;53.586;10.052;2023-03-16T19:10:31;101387.75;;;6.26;100.00
47240;BME280;32978;53.586;10.052;2023-03-16T19:15:30;101379.63;;;6.21;100.00
47240;BME280;32978;53.586;10.052;2023-03-16T19:20:29;101368.50;;;6.22;100.00
47240;BME280;32978;53.586;10.052;2023-03-16T19:25:36;101374.19;;;6.21;100.00
47240;BME280;32978;53.586;10.052;2023-03-16T19:30:34;101374.19;;;6.21;100.00
47240;BME280;32978;53.586;10.052;2023-03-16T19:35:31;101379.88;;;6.14;100.00
47240;BME280;32978;53.586;10.052;2023-03-16T19:40:53;101363.31;;;6.05;100.00
47240;BME280;32978;53.586;10.052;2023-03-16T19:45:51;101361.97;;;6.03;100.00
47240;BME280;32978;53.586;10.052;2023-03-16T19:50:49;101354.63;;;6.03;100.00
47240;BME280;32978;53.586;10.052;2023-03-16T19:55:47;101342.16;;;5.97;100.00
47240;BME280;32978;53.586;10.052;2023-03-16T20:00:47;101350.28;;;5.92;100.00
47240;BME280;32978;53.586;10.052;2023-03-16T20:05:49;101337.78;;;5.91;100.00
47240;BME280;32978;53.586;10.052;2023-03-16T20:10:46;101342.38;;;5.90;100.00
47240;BME280;32978;53.586;10.052;2023-03-16T20:15:44;101343.19;;;5.91;100.00
47240;BME280;32978;53.586;10.052;2023-03-16T20:20:42;101336.16;;;5.90;100.00
47240;BME280;32978;53.586;10.052;2023-03-16T20:25:42;101336.19;;;6.00;100.00
47240;BME280;32978;53.586;10.052;2023-03-16T20:30:38;101327.47;;;5.98;100.00
47240;BME280;32978;53.586;10.052;2023-03-16T20:35:35;101315.81;;;5.98;100.00
47240;BME280;32978;53.586;10.052;2023-03-16T20:40:31;101322.03;;;5.93;100.00
47240;BME280;32978;53.586;10.052;2023-03-16T20:45:28;101315.81;;;5.87;100.00
47240;BME280;32978;53.586;10.052;2023-03-16T20:50:28;101300.34;;;5.83;100.00
47240;BME280;32978;53.586;10.052;2023-03-16T20:55:26;101294.38;;;5.76;100.00
47240;BME280;32978;53.586;10.052;2023-03-16T21:00:29;101290.56;;;5.72;100.00
47240;BME280;32978;53.586;10.052;2023-03-16T21:05:26;101284.84;;;5.63;100.00
47240;BME280;32978;53.586;10.052;2023-03-16T21:10:24;101268.03;;;5.56;100.00
47240;BME280;32978;53.586;10.052;2023-03-16T21:15:25;101259.09;;;5.55;100.00
47240;BME280;32978;53.586;10.052;2023-03-16T21:20:24;101255.81;;;5.53;100.00
47240;BME280;32978;53.586;10.052;2023-03-16T21:25:27;101266.94;;;5.46;100.00
47240;BME280;32978;53.586;10.052;2023-03-16T21:35:31;101249.84;;;5.41;100.00
47240;BME280;32978;53.586;10.052;2023-03-16T21:40:28;101236.28;;;5.46;100.00
47240;BME280;32978;53.586;10.052;2023-03-16T21:45:25;101238.16;;;5.40;100.00
47240;BME280;32978;53.586;10.052;2023-03-16T21:50:24;101239.28;;;5.39;100.00
47240;BME280;32978;53.586;10.052;2023-03-16T21:55:25;101234.41;;;5.36;100.00
47240;BME280;32978;53.586;10.052;2023-03-16T22:00:27;101247.66;;;5.38;100.00
47240;BME280;32978;53.586;10.052;2023-03-16T22:10:28;101228.69;;;5.33;100.00
47240;BME280;32978;53.586;10.052;2023-03-16T22:15:25;101224.88;;;5.34;100.00
47240;BME280;32978;53.586;10.052;2023-03-16T22:20:24;101222.16;;;5.34;100.00
47240;BME280;32978;53.586;10.052;2023-03-16T22:25:23;101220.00;;;5.31;100.00
47240;BME280;32978;53.586;10.052;2023-03-16T22:30:25;101230.84;;;5.31;100.00
47240;BME280;32978;53.586;10.052;2023-03-16T22:35:34;101223.81;;;5.30;100.00
47240;BME280;32978;53.586;10.052;2023-03-16T22:40:35;101213.22;;;5.28;100.00
47240;BME280;32978;53.586;10.052;2023-03-16T22:45:33;101212.97;;;5.30;100.00
47240;BME280;32978;53.586;10.052;2023-03-16T22:50:33;101202.94;;;5.20;100.00
47240;BME280;32978;53.586;10.052;2023-03-16T22:55:33;101197.50;;;5.20;100.00
47240;BME280;32978;53.586;10.052;2023-03-16T23:00:30;101202.09;;;5.14;100.00
47240;BME280;32978;53.586;10.052;2023-03-16T23:05:27;101178.25;;;5.11;100.00
47240;BME280;32978;53.586;10.052;2023-03-16T23:10:25;101182.88;;;5.11;100.00
47240;BME280;32978;53.586;10.052;2023-03-16T23:15:27;101179.31;;;5.05;100.00
47240;BME280;32978;53.586;10.052;2023-03-16T23:20:28;101157.09;;;5.03;100.00
47240;BME280;32978;53.586;10.052;2023-03-16T23:25:25;101153.56;;;5.02;100.00
47240;BME280;32978;53.586;10.052;2023-03-16T23:30:24;101144.88;;;5.00;100.00
47240;BME280;32978;53.586;10.052;2023-03-16T23:35:23;101149.50;;;5.00;100.00
47240;BME280;32978;53.586;10.052;2023-03-16T23:40:22;101141.38;;;5.00;100.00
47240;BME280;32978;53.586;10.052;2023-03-16T23:45:23;101155.47;;;4.97;100.00
47240;BME280;32978;53.586;10.052;2023-03-16T23:50:24;101144.06;;;4.90;100.00
47240;BME280;32978;53.586;10.052;2023-03-16T23:55:22;101135.41;;;4.88;100.00
